sensor_id;sensor_type;location;lat;lon;timestamp;P1;durP1;ratioP1;P2;durP2;ratioP2
17564;SDS011;62994;52.126;5.596;2024-01-11T00:01:34;3.93;;;3.63;;
17564;SDS011;62994;52.126;5.596;2024-01-11T00:04:01;3.63;;;3.33;;
17564;SDS011;62994;52.126;5.596;2024-01-11T00:06:28;3.97;;;3.67;;
17564;SDS011;62994;52.126;5.596;2024-01-11T00:08:55;4.00;;;3.60;;
17564;SDS011;62994;52.126;5.596;2024-01-11T00:11:22;2.97;;;2.77;;
17564;SDS011;62994;52.126;5.596;2024-01-11T00:13:49;3.97;;;3.60;;
17564;SDS011;62994;52.126;5.596;2024-01-11T00:16:17;3.80;;;3.53;;
17564;SDS011;62994;52.126;5.596;2024-01-11T00:18:44;3.67;;;3.37;;
17564;SDS011;62994;52.126;5.596;2024-01-11T00:21:11;3.33;;;3.13;;
17564;SDS011;62994;52.126;5.596;2024-01-11T00:23:38;3.63;;;3.37;;
17564;SDS011;62994;52.126;5.596;2024-01-11T00:26:05;3.70;;;3.40;;
17564;SDS011;62994;52.126;5.596;2024-01-11T00:28:32;3.43;;;3.23;;
17564;SDS011;62994;52.126;5.596;2024-01-11T00:30:59;3.80;;;3.50;;
17564;SDS011;62994;52.126;5.596;2024-01-11T00:33:27;3.37;;;3.17;;
17564;SDS011;62994;52.126;5.596;2024-01-11T00:35:54;4.77;;;3.60;;
17564;SDS011;62994;52.126;5.596;2024-01-11T00:38:21;3.87;;;3.50;;
17564;SDS011;62994;52.126;5.596;2024-01-11T00:40:48;3.63;;;3.33;;
17564;SDS011;62994;52.126;5.596;2024-01-11T00:43:15;3.23;;;3.03;;
17564;SDS011;62994;52.126;5.596;2024-01-11T00:45:43;3.30;;;3.10;;
17564;SDS011;62994;52.126;5.596;2024-01-11T00:48:12;3.90;;;3.50;;
17564;SDS011;62994;52.126;5.596;2024-01-11T00:50:40;3.87;;;3.57;;
17564;SDS011;62994;52.126;5.596;2024-01-11T00:53:07;3.60;;;3.40;;
17564;SDS011;62994;52.126;5.596;2024-01-11T00:55:35;3.70;;;3.30;;
17564;SDS011;62994;52.126;5.596;2024-01-11T00:58:02;3.50;;;3.30;;
17564;SDS011;62994;52.126;5.596;2024-01-11T01:00:29;3.67;;;3.37;;
17564;SDS011;62994;52.126;5.596;2024-01-11T01:02:56;3.67;;;3.43;;
17564;SDS011;62994;52.126;5.596;2024-01-11T01:05:23;3.97;;;3.60;;
17564;SDS011;62994;52.126;5.596;2024-01-11T01:07:51;3.53;;;3.23;;
17564;SDS011;62994;52.126;5.596;2024-01-11T01:10:18;3.00;;;2.80;;
17564;SDS011;62994;52.126;5.596;2024-01-11T01:12:45;3.20;;;2.93;;
17564;SDS011;62994;52.126;5.596;2024-01-11T01:15:12;3.83;;;3.53;;
17564;SDS011;62994;52.126;5.596;2024-01-11T01:17:40;4.13;;;3.47;;
17564;SDS011;62994;52.126;5.596;2024-01-11T01:20:07;3.83;;;3.53;;
17564;SDS011;62994;52.126;5.596;2024-01-11T01:22:35;3.97;;;3.67;;
17564;SDS011;62994;52.126;5.596;2024-01-11T01:25:03;3.63;;;3.43;;
17564;SDS011;62994;52.126;5.596;2024-01-11T01:27:31;3.77;;;3.47;;
17564;SDS011;62994;52.126;5.596;2024-01-11T01:29:58;3.40;;;3.20;;
17564;SDS011;62994;52.126;5.596;2024-01-11T01:32:25;3.77;;;3.47;;
17564;SDS011;62994;52.126;5.596;2024-01-11T01:34:52;3.90;;;3.50;;
17564;SDS011;62994;52.126;5.596;2024-01-11T01:37:19;3.37;;;3.17;;
17564;SDS011;62994;52.126;5.596;2024-01-11T01:39:46;3.47;;;3.17;;
17564;SDS011;62994;52.126;5.596;2024-01-11T01:42:13;3.83;;;3.53;;
17564;SDS011;62994;52.126;5.596;2024-01-11T01:44:40;3.47;;;3.20;;
17564;SDS011;62994;52.126;5.596;2024-01-11T01:47:08;3.60;;;3.30;;
17564;SDS011;62994;52.126;5.596;2024-01-11T01:49:37;3.80;;;3.50;;
17564;SDS011;62994;52.126;5.596;2024-01-11T01:52:05;2.90;;;2.70;;
17564;SDS011;62994;52.126;5.596;2024-01-11T01:54:33;3.30;;;3.10;;
17564;SDS011;62994;52.126;5.596;2024-01-11T01:57:00;3.20;;;2.93;;
17564;SDS011;62994;52.126;5.596;2024-01-11T01:59:30;3.30;;;3.10;;
17564;SDS011;62994;52.126;5.596;2024-01-11T02:01:58;3.27;;;2.97;;
17564;SDS011;62994;52.126;5.596;2024-01-11T02:04:25;3.93;;;3.63;;
17564;SDS011;62994;52.126;5.596;2024-01-11T02:06:53;3.50;;;3.20;;
17564;SDS011;62994;52.126;5.596;2024-01-11T02:09:20;3.40;;;3.20;;
17564;SDS011;62994;52.126;5.596;2024-01-11T02:11:47;3.70;;;3.40;;
17564;SDS011;62994;52.126;5.596;2024-01-11T02:14:14;3.13;;;2.93;;
17564;SDS011;62994;52.126;5.596;2024-01-11T02:16:43;3.20;;;3.00;;
17564;SDS011;62994;52.126;5.596;2024-01-11T02:19:11;3.10;;;2.90;;
17564;SDS011;62994;52.126;5.596;2024-01-11T02:21:40;3.33;;;3.13;;
17564;SDS011;62994;52.126;5.596;2024-01-11T02:24:10;3.07;;;2.87;;
17564;SDS011;62994;52.126;5.596;2024-01-11T02:26:37;3.13;;;2.93;;
17564;SDS011;62994;52.126;5.596;2024-01-11T02:29:24;3.63;;;3.33;;
17564;SDS011;62994;52.126;5.596;2024-01-11T02:31:51;2.97;;;2.77;;
17564;SDS011;62994;52.126;5.596;2024-01-11T02:34:18;3.23;;;2.93;;
17564;SDS011;62994;52.126;5.596;2024-01-11T02:36:45;3.00;;;2.80;;
17564;SDS011;62994;52.126;5.596;2024-01-11T02:39:14;3.20;;;3.00;;
17564;SDS011;62994;52.126;5.596;2024-01-11T02:41:43;3.90;;;3.60;;
17564;SDS011;62994;52.126;5.596;2024-01-11T02:44:10;3.63;;;3.33;;
17564;SDS011;62994;52.126;5.596;2024-01-11T02:46:37;3.30;;;3.10;;
17564;SDS011;62994;52.126;5.596;2024-01-11T02:49:04;3.63;;;3.40;;
17564;SDS011;62994;52.126;5.596;2024-01-11T02:51:33;3.20;;;3.00;;
17564;SDS011;62994;52.126;5.596;2024-01-11T02:54:04;3.80;;;3.50;;
17564;SDS011;62994;52.126;5.596;2024-01-11T02:56:41;3.10;;;2.90;;
17564;SDS011;62994;52.126;5.596;2024-01-11T02:59:08;3.63;;;3.33;;
17564;SDS011;62994;52.126;5.596;2024-01-11T03:01:37;4.27;;;3.47;;
17564;SDS011;62994;52.126;5.596;2024-01-11T03:04:05;2.90;;;2.70;;
17564;SDS011;62994;52.126;5.596;2024-01-11T03:06:34;3.50;;;3.20;;
17564;SDS011;62994;52.126;5.596;2024-01-11T03:09:01;3.20;;;3.00;;
17564;SDS011;62994;52.126;5.596;2024-01-11T03:11:36;3.33;;;3.13;;
17564;SDS011;62994;52.126;5.596;2024-01-11T03:14:07;3.40;;;3.20;;
17564;SDS011;62994;52.126;5.596;2024-01-11T03:16:39;3.27;;;3.07;;
17564;SDS011;62994;52.126;5.596;2024-01-11T03:19:06;3.87;;;3.57;;
17564;SDS011;62994;52.126;5.596;2024-01-11T03:21:34;3.47;;;3.17;;
17564;SDS011;62994;52.126;5.596;2024-01-11T03:24:01;3.10;;;2.90;;
17564;SDS011;62994;52.126;5.596;2024-01-11T03:26:28;3.20;;;3.00;;
17564;SDS011;62994;52.126;5.596;2024-01-11T03:29:07;3.33;;;3.13;;
17564;SDS011;62994;52.126;5.596;2024-01-11T03:31:34;3.83;;;2.60;;
17564;SDS011;62994;52.126;5.596;2024-01-11T03:34:06;3.60;;;3.23;;
17564;SDS011;62994;52.126;5.596;2024-01-11T03:36:33;4.20;;;3.33;;
17564;SDS011;62994;52.126;5.596;2024-01-11T03:39:07;2.80;;;2.60;;
17564;SDS011;62994;52.126;5.596;2024-01-11T03:41:37;3.13;;;2.93;;
17564;SDS011;62994;52.126;5.596;2024-01-11T03:44:10;3.10;;;2.80;;
17564;SDS011;62994;52.126;5.596;2024-01-11T03:46:40;2.90;;;2.70;;
17564;SDS011;62994;52.126;5.596;2024-01-11T03:49:10;3.03;;;2.83;;
17564;SDS011;62994;52.126;5.596;2024-01-11T03:51:40;3.10;;;2.90;;
17564;SDS011;62994;52.126;5.596;2024-01-11T03:54:12;2.90;;;2.70;;
17564;SDS011;62994;52.126;5.596;2024-01-11T03:56:43;2.90;;;2.70;;
17564;SDS011;62994;52.126;5.596;2024-01-11T03:59:19;3.03;;;2.83;;
17564;SDS011;62994;52.126;5.596;2024-01-11T04:01:49;2.67;;;2.47;;
17564;SDS011;62994;52.126;5.596;2024-01-11T04:04:17;3.10;;;2.83;;
17564;SDS011;62994;52.126;5.596;2024-01-11T04:06:45;3.17;;;2.97;;
17564;SDS011;62994;52.126;5.596;2024-01-11T04:09:16;3.20;;;2.90;;
17564;SDS011;62994;52.126;5.596;2024-01-11T04:11:48;3.20;;;3.00;;
17564;SDS011;62994;52.126;5.596;2024-01-11T04:14:20;3.67;;;3.37;;
17564;SDS011;62994;52.126;5.596;2024-01-11T04:16:47;3.17;;;2.97;;
17564;SDS011;62994;52.126;5.596;2024-01-11T04:19:15;3.23;;;3.03;;
17564;SDS011;62994;52.126;5.596;2024-01-11T04:21:43;3.13;;;2.93;;
17564;SDS011;62994;52.126;5.596;2024-01-11T04:24:12;3.60;;;3.40;;
17564;SDS011;62994;52.126;5.596;2024-01-11T04:29:29;3.40;;;3.20;;
17564;SDS011;62994;52.126;5.596;2024-01-11T04:31:56;2.90;;;2.70;;
17564;SDS011;62994;52.126;5.596;2024-01-11T04:34:28;2.73;;;2.53;;
17564;SDS011;62994;52.126;5.596;2024-01-11T04:37:01;3.07;;;2.87;;
17564;SDS011;62994;52.126;5.596;2024-01-11T04:39:38;3.10;;;2.90;;
17564;SDS011;62994;52.126;5.596;2024-01-11T04:42:06;3.65;;;3.45;;
17564;SDS011;62994;52.126;5.596;2024-01-11T04:44:39;3.30;;;3.00;;
17564;SDS011;62994;52.126;5.596;2024-01-11T04:47:10;3.10;;;2.90;;
17564;SDS011;62994;52.126;5.596;2024-01-11T04:49:48;3.90;;;3.60;;
17564;SDS011;62994;52.126;5.596;2024-01-11T04:52:17;3.67;;;3.37;;
17564;SDS011;62994;52.126;5.596;2024-01-11T04:54:45;3.63;;;3.33;;
17564;SDS011;62994;52.126;5.596;2024-01-11T04:57:14;3.77;;;3.20;;
17564;SDS011;62994;52.126;5.596;2024-01-11T04:59:45;3.90;;;3.07;;
17564;SDS011;62994;52.126;5.596;2024-01-11T05:02:16;3.20;;;3.00;;
17564;SDS011;62994;52.126;5.596;2024-01-11T05:04:43;3.03;;;2.83;;
17564;SDS011;62994;52.126;5.596;2024-01-11T05:07:12;3.57;;;3.27;;
17564;SDS011;62994;52.126;5.596;2024-01-11T05:09:41;3.83;;;3.37;;
17564;SDS011;62994;52.126;5.596;2024-01-11T05:12:11;3.30;;;3.10;;
17564;SDS011;62994;52.126;5.596;2024-01-11T05:14:40;3.67;;;3.33;;
17564;SDS011;62994;52.126;5.596;2024-01-11T05:17:11;3.33;;;3.13;;
17564;SDS011;62994;52.126;5.596;2024-01-11T05:19:45;3.57;;;3.27;;
17564;SDS011;62994;52.126;5.596;2024-01-11T05:22:18;3.67;;;3.37;;
17564;SDS011;62994;52.126;5.596;2024-01-11T05:24:54;3.63;;;3.33;;
17564;SDS011;62994;52.126;5.596;2024-01-11T05:27:24;3.80;;;3.53;;
17564;SDS011;62994;52.126;5.596;2024-01-11T05:30:21;3.10;;;2.90;;
17564;SDS011;62994;52.126;5.596;2024-01-11T05:32:56;3.10;;;2.90;;
17564;SDS011;62994;52.126;5.596;2024-01-11T05:35:27;4.13;;;3.80;;
17564;SDS011;62994;52.126;5.596;2024-01-11T05:37:56;3.90;;;3.67;;
17564;SDS011;62994;52.126;5.596;2024-01-11T05:40:28;3.70;;;3.40;;
17564;SDS011;62994;52.126;5.596;2024-01-11T05:42:58;3.60;;;3.30;;
17564;SDS011;62994;52.126;5.596;2024-01-11T05:45:25;3.50;;;3.30;;
17564;SDS011;62994;52.126;5.596;2024-01-11T05:47:54;3.40;;;3.20;;
17564;SDS011;62994;52.126;5.596;2024-01-11T05:50:26;2.90;;;2.70;;
17564;SDS011;62994;52.126;5.596;2024-01-11T05:52:55;3.60;;;3.30;;
17564;SDS011;62994;52.126;5.596;2024-01-11T05:55:29;3.37;;;3.10;;
17564;SDS011;62994;52.126;5.596;2024-01-11T05:58:05;3.70;;;3.37;;
17564;SDS011;62994;52.126;5.596;2024-01-11T06:00:38;3.67;;;3.37;;
17564;SDS011;62994;52.126;5.596;2024-01-11T06:03:09;3.80;;;3.50;;
17564;SDS011;62994;52.126;5.596;2024-01-11T06:05:41;3.60;;;3.30;;
17564;SDS011;62994;52.126;5.596;2024-01-11T06:08:08;3.40;;;3.20;;
17564;SDS011;62994;52.126;5.596;2024-01-11T06:10:40;3.43;;;3.23;;
17564;SDS011;62994;52.126;5.596;2024-01-11T06:13:07;3.17;;;2.93;;
17564;SDS011;62994;52.126;5.596;2024-01-11T06:15:49;3.10;;;2.90;;
17564;SDS011;62994;52.126;5.596;2024-01-11T06:18:25;3.43;;;3.13;;
17564;SDS011;62994;52.126;5.596;2024-01-11T06:20:53;3.57;;;3.37;;
17564;SDS011;62994;52.126;5.596;2024-01-11T06:23:24;3.13;;;2.93;;
17564;SDS011;62994;52.126;5.596;2024-01-11T06:26:03;3.40;;;3.10;;
17564;SDS011;62994;52.126;5.596;2024-01-11T06:28:32;3.53;;;3.23;;
17564;SDS011;62994;52.126;5.596;2024-01-11T06:31:02;3.37;;;3.17;;
17564;SDS011;62994;52.126;5.596;2024-01-11T06:33:33;3.63;;;3.33;;
17564;SDS011;62994;52.126;5.596;2024-01-11T06:36:07;3.13;;;2.93;;
17564;SDS011;62994;52.126;5.596;2024-01-11T06:38:37;3.40;;;3.20;;
17564;SDS011;62994;52.126;5.596;2024-01-11T06:41:05;3.37;;;3.17;;
17564;SDS011;62994;52.126;5.596;2024-01-11T06:43:32;3.37;;;3.17;;
17564;SDS011;62994;52.126;5.596;2024-01-11T06:46:02;3.23;;;3.03;;
17564;SDS011;62994;52.126;5.596;2024-01-11T06:51:20;3.47;;;3.17;;
17564;SDS011;62994;52.126;5.596;2024-01-11T06:53:50;3.97;;;3.67;;
17564;SDS011;62994;52.126;5.596;2024-01-11T06:56:23;3.20;;;3.00;;
17564;SDS011;62994;52.126;5.596;2024-01-11T06:58:57;3.20;;;3.00;;
17564;SDS011;62994;52.126;5.596;2024-01-11T07:01:28;3.80;;;3.50;;
17564;SDS011;62994;52.126;5.596;2024-01-11T07:10:35;3.83;;;3.53;;
17564;SDS011;62994;52.126;5.596;2024-01-11T07:13:05;6.50;;;5.90;;
17564;SDS011;62994;52.126;5.596;2024-01-11T07:15:41;7.27;;;6.53;;
17564;SDS011;62994;52.126;5.596;2024-01-11T07:18:11;7.03;;;6.37;;
17564;SDS011;62994;52.126;5.596;2024-01-11T07:21:00;7.50;;;6.90;;
17564;SDS011;62994;52.126;5.596;2024-01-11T07:23:34;8.13;;;6.53;;
17564;SDS011;62994;52.126;5.596;2024-01-11T07:26:14;7.37;;;6.60;;
17564;SDS011;62994;52.126;5.596;2024-01-11T07:28:41;8.40;;;6.87;;
17564;SDS011;62994;52.126;5.596;2024-01-11T07:31:17;7.80;;;7.00;;
17564;SDS011;62994;52.126;5.596;2024-01-11T07:33:45;10.43;;;6.87;;
17564;SDS011;62994;52.126;5.596;2024-01-11T07:36:15;7.30;;;6.70;;
17564;SDS011;62994;52.126;5.596;2024-01-11T07:38:45;7.40;;;6.70;;
17564;SDS011;62994;52.126;5.596;2024-01-11T07:41:26;7.97;;;6.30;;
17564;SDS011;62994;52.126;5.596;2024-01-11T07:43:55;6.80;;;6.20;;
17564;SDS011;62994;52.126;5.596;2024-01-11T07:46:25;7.00;;;6.40;;
17564;SDS011;62994;52.126;5.596;2024-01-11T07:48:54;7.00;;;6.30;;
17564;SDS011;62994;52.126;5.596;2024-01-11T07:51:22;7.53;;;6.03;;
17564;SDS011;62994;52.126;5.596;2024-01-11T07:53:53;8.57;;;6.73;;
17564;SDS011;62994;52.126;5.596;2024-01-11T07:56:23;8.77;;;6.67;;
17564;SDS011;62994;52.126;5.596;2024-01-11T07:58:55;6.73;;;6.03;;
17564;SDS011;62994;52.126;5.596;2024-01-11T08:01:26;6.20;;;5.63;;
17564;SDS011;62994;52.126;5.596;2024-01-11T08:04:00;7.40;;;6.70;;
17564;SDS011;62994;52.126;5.596;2024-01-11T08:06:35;6.93;;;6.37;;
17564;SDS011;62994;52.126;5.596;2024-01-11T08:09:22;7.47;;;6.77;;
17564;SDS011;62994;52.126;5.596;2024-01-11T08:11:57;6.87;;;6.17;;
17564;SDS011;62994;52.126;5.596;2024-01-11T08:14:25;6.90;;;5.90;;
17564;SDS011;62994;52.126;5.596;2024-01-11T08:16:54;6.30;;;5.63;;
17564;SDS011;62994;52.126;5.596;2024-01-11T08:19:27;6.07;;;5.57;;
17564;SDS011;62994;52.126;5.596;2024-01-11T08:21:59;7.13;;;6.47;;
17564;SDS011;62994;52.126;5.596;2024-01-11T08:24:31;7.13;;;6.53;;
17564;SDS011;62994;52.126;5.596;2024-01-11T08:27:02;6.87;;;6.17;;
17564;SDS011;62994;52.126;5.596;2024-01-11T08:29:34;6.60;;;6.00;;
17564;SDS011;62994;52.126;5.596;2024-01-11T08:32:04;6.47;;;5.87;;
17564;SDS011;62994;52.126;5.596;2024-01-11T08:34:32;6.83;;;6.10;;
17564;SDS011;62994;52.126;5.596;2024-01-11T08:37:00;5.93;;;5.43;;
17564;SDS011;62994;52.126;5.596;2024-01-11T08:39:30;7.60;;;6.20;;
17564;SDS011;62994;52.126;5.596;2024-01-11T08:42:00;7.03;;;6.43;;
17564;SDS011;62994;52.126;5.596;2024-01-11T08:44:45;6.93;;;6.33;;
17564;SDS011;62994;52.126;5.596;2024-01-11T08:47:15;6.97;;;6.27;;
17564;SDS011;62994;52.126;5.596;2024-01-11T08:49:46;6.57;;;5.97;;
17564;SDS011;62994;52.126;5.596;2024-01-11T08:52:23;6.47;;;5.87;;
17564;SDS011;62994;52.126;5.596;2024-01-11T08:55:00;7.37;;;6.67;;
17564;SDS011;62994;52.126;5.596;2024-01-11T08:57:30;6.80;;;6.10;;
17564;SDS011;62994;52.126;5.596;2024-01-11T09:00:00;6.83;;;6.23;;
17564;SDS011;62994;52.126;5.596;2024-01-11T09:02:31;6.80;;;6.10;;
17564;SDS011;62994;52.126;5.596;2024-01-11T09:04:58;6.60;;;6.00;;
17564;SDS011;62994;52.126;5.596;2024-01-11T09:07:26;6.97;;;6.23;;
17564;SDS011;62994;52.126;5.596;2024-01-11T09:09:53;7.67;;;6.50;;
17564;SDS011;62994;52.126;5.596;2024-01-11T09:12:27;6.97;;;6.37;;
17564;SDS011;62994;52.126;5.596;2024-01-11T09:14:58;6.63;;;6.00;;
17564;SDS011;62994;52.126;5.596;2024-01-11T09:17:35;7.50;;;6.43;;
17564;SDS011;62994;52.126;5.596;2024-01-11T09:20:15;8.27;;;6.67;;
17564;SDS011;62994;52.126;5.596;2024-01-11T09:22:48;7.33;;;6.60;;
17564;SDS011;62994;52.126;5.596;2024-01-11T09:25:20;7.30;;;6.53;;
17564;SDS011;62994;52.126;5.596;2024-01-11T09:27:52;6.73;;;6.13;;
17564;SDS011;62994;52.126;5.596;2024-01-11T09:30:24;7.77;;;6.60;;
17564;SDS011;62994;52.126;5.596;2024-01-11T09:33:18;8.27;;;6.93;;
17564;SDS011;62994;52.126;5.596;2024-01-11T09:35:50;7.50;;;6.80;;
17564;SDS011;62994;52.126;5.596;2024-01-11T09:38:24;8.30;;;7.17;;
17564;SDS011;62994;52.126;5.596;2024-01-11T09:40:59;7.77;;;6.57;;
17564;SDS011;62994;52.126;5.596;2024-01-11T09:43:53;7.33;;;6.63;;
17564;SDS011;62994;52.126;5.596;2024-01-11T09:46:25;8.47;;;7.13;;
17564;SDS011;62994;52.126;5.596;2024-01-11T09:48:54;7.87;;;6.90;;
17564;SDS011;62994;52.126;5.596;2024-01-11T09:51:28;6.80;;;6.10;;
17564;SDS011;62994;52.126;5.596;2024-01-11T09:54:01;8.10;;;6.53;;
17564;SDS011;62994;52.126;5.596;2024-01-11T09:56:39;7.60;;;6.37;;
17564;SDS011;62994;52.126;5.596;2024-01-11T09:59:09;10.13;;;7.73;;
17564;SDS011;62994;52.126;5.596;2024-01-11T10:01:45;7.70;;;7.00;;
17564;SDS011;62994;52.126;5.596;2024-01-11T10:04:17;7.80;;;6.77;;
17564;SDS011;62994;52.126;5.596;2024-01-11T10:06:44;8.67;;;7.23;;
17564;SDS011;62994;52.126;5.596;2024-01-11T10:09:16;8.20;;;6.57;;
17564;SDS011;62994;52.126;5.596;2024-01-11T10:11:47;7.40;;;6.70;;
17564;SDS011;62994;52.126;5.596;2024-01-11T10:14:18;8.10;;;6.83;;
17564;SDS011;62994;52.126;5.596;2024-01-11T10:16:52;8.47;;;6.93;;
17564;SDS011;62994;52.126;5.596;2024-01-11T10:19:23;7.13;;;6.43;;
17564;SDS011;62994;52.126;5.596;2024-01-11T10:22:04;7.73;;;6.67;;
17564;SDS011;62994;52.126;5.596;2024-01-11T10:24:43;9.60;;;7.33;;
17564;SDS011;62994;52.126;5.596;2024-01-11T10:27:15;7.77;;;7.03;;
17564;SDS011;62994;52.126;5.596;2024-01-11T10:29:52;8.00;;;6.70;;
17564;SDS011;62994;52.126;5.596;2024-01-11T10:32:23;9.00;;;6.80;;
17564;SDS011;62994;52.126;5.596;2024-01-11T10:35:02;6.80;;;6.20;;
17564;SDS011;62994;52.126;5.596;2024-01-11T10:37:36;8.10;;;6.57;;
17564;SDS011;62994;52.126;5.596;2024-01-11T10:40:15;7.50;;;6.33;;
17564;SDS011;62994;52.126;5.596;2024-01-11T10:42:49;7.73;;;6.33;;
17564;SDS011;62994;52.126;5.596;2024-01-11T10:45:20;7.80;;;7.10;;
17564;SDS011;62994;52.126;5.596;2024-01-11T10:47:51;9.13;;;7.27;;
17564;SDS011;62994;52.126;5.596;2024-01-11T10:50:34;7.10;;;6.50;;
17564;SDS011;62994;52.126;5.596;2024-01-11T10:53:16;7.37;;;6.50;;
17564;SDS011;62994;52.126;5.596;2024-01-11T10:55:53;8.70;;;6.67;;
17564;SDS011;62994;52.126;5.596;2024-01-11T10:58:22;7.37;;;6.17;;
17564;SDS011;62994;52.126;5.596;2024-01-11T11:00:55;8.43;;;6.73;;
17564;SDS011;62994;52.126;5.596;2024-01-11T11:03:30;7.27;;;6.27;;
17564;SDS011;62994;52.126;5.596;2024-01-11T11:06:01;7.60;;;6.60;;
17564;SDS011;62994;52.126;5.596;2024-01-11T11:08:32;7.40;;;5.90;;
17564;SDS011;62994;52.126;5.596;2024-01-11T11:11:06;7.67;;;6.73;;
17564;SDS011;62994;52.126;5.596;2024-01-11T11:13:33;7.57;;;5.87;;
17564;SDS011;62994;52.126;5.596;2024-01-11T11:16:02;7.17;;;5.90;;
17564;SDS011;62994;52.126;5.596;2024-01-11T11:18:31;7.57;;;6.53;;
17564;SDS011;62994;52.126;5.596;2024-01-11T11:21:01;7.10;;;6.37;;
17564;SDS011;62994;52.126;5.596;2024-01-11T11:23:42;7.40;;;6.37;;
17564;SDS011;62994;52.126;5.596;2024-01-11T11:26:27;7.27;;;6.47;;
17564;SDS011;62994;52.126;5.596;2024-01-11T11:29:08;7.57;;;6.03;;
17564;SDS011;62994;52.126;5.596;2024-01-11T11:31:47;6.60;;;6.00;;
17564;SDS011;62994;52.126;5.596;2024-01-11T11:37:09;8.10;;;5.93;;
17564;SDS011;62994;52.126;5.596;2024-01-11T11:39:38;8.30;;;6.40;;
17564;SDS011;62994;52.126;5.596;2024-01-11T11:42:17;7.07;;;6.23;;
17564;SDS011;62994;52.126;5.596;2024-01-11T11:44:53;7.17;;;5.97;;
17564;SDS011;62994;52.126;5.596;2024-01-11T11:47:23;7.40;;;6.47;;
17564;SDS011;62994;52.126;5.596;2024-01-11T11:50:08;6.23;;;5.63;;
17564;SDS011;62994;52.126;5.596;2024-01-11T11:53:01;8.27;;;6.00;;
17564;SDS011;62994;52.126;5.596;2024-01-11T11:58:50;6.50;;;5.90;;
17564;SDS011;62994;52.126;5.596;2024-01-11T12:01:24;7.70;;;5.60;;
17564;SDS011;62994;52.126;5.596;2024-01-11T12:03:55;7.10;;;5.83;;
17564;SDS011;62994;52.126;5.596;2024-01-11T12:06:27;6.03;;;5.43;;
17564;SDS011;62994;52.126;5.596;2024-01-11T12:08:57;6.90;;;6.23;;
17564;SDS011;62994;52.126;5.596;2024-01-11T12:11:26;7.10;;;6.03;;
17564;SDS011;62994;52.126;5.596;2024-01-11T12:13:54;6.90;;;6.20;;
17564;SDS011;62994;52.126;5.596;2024-01-11T12:16:23;6.20;;;5.60;;
17564;SDS011;62994;52.126;5.596;2024-01-11T12:18:55;6.50;;;5.53;;
17564;SDS011;62994;52.126;5.596;2024-01-11T12:21:22;6.00;;;5.43;;
17564;SDS011;62994;52.126;5.596;2024-01-11T12:26:48;6.47;;;5.87;;
17564;SDS011;62994;52.126;5.596;2024-01-11T12:29:20;6.87;;;5.83;;
17564;SDS011;62994;52.126;5.596;2024-01-11T12:32:04;6.27;;;5.47;;
17564;SDS011;62994;52.126;5.596;2024-01-11T12:34:48;8.90;;;6.20;;
17564;SDS011;62994;52.126;5.596;2024-01-11T12:37:19;6.90;;;6.17;;
17564;SDS011;62994;52.126;5.596;2024-01-11T12:39:54;6.13;;;5.23;;
17564;SDS011;62994;52.126;5.596;2024-01-11T12:42:28;6.20;;;5.60;;
17564;SDS011;62994;52.126;5.596;2024-01-11T12:44:57;6.33;;;5.77;;
17564;SDS011;62994;52.126;5.596;2024-01-11T12:47:25;6.53;;;5.83;;
17564;SDS011;62994;52.126;5.596;2024-01-11T12:49:52;6.20;;;5.60;;
17564;SDS011;62994;52.126;5.596;2024-01-11T12:52:28;5.77;;;5.27;;
17564;SDS011;62994;52.126;5.596;2024-01-11T12:55:00;6.47;;;5.87;;
17564;SDS011;62994;52.126;5.596;2024-01-11T12:57:34;5.33;;;4.93;;
17564;SDS011;62994;52.126;5.596;2024-01-11T13:02:50;6.03;;;5.43;;
17564;SDS011;62994;52.126;5.596;2024-01-11T13:05:23;5.37;;;4.87;;
17564;SDS011;62994;52.126;5.596;2024-01-11T13:07:52;5.93;;;5.00;;
17564;SDS011;62994;52.126;5.596;2024-01-11T13:10:30;5.20;;;4.70;;
17564;SDS011;62994;52.126;5.596;2024-01-11T13:15:55;6.47;;;5.33;;
17564;SDS011;62994;52.126;5.596;2024-01-11T13:18:25;5.47;;;4.93;;
17564;SDS011;62994;52.126;5.596;2024-01-11T13:20:55;5.50;;;5.00;;
17564;SDS011;62994;52.126;5.596;2024-01-11T13:23:24;5.30;;;4.90;;
17564;SDS011;62994;52.126;5.596;2024-01-11T13:25:52;5.40;;;4.90;;
17564;SDS011;62994;52.126;5.596;2024-01-11T13:28:23;5.50;;;5.10;;
17564;SDS011;62994;52.126;5.596;2024-01-11T13:30:52;5.07;;;4.63;;
17564;SDS011;62994;52.126;5.596;2024-01-11T13:33:51;6.90;;;6.13;;
17564;SDS011;62994;52.126;5.596;2024-01-11T13:36:10;5.47;;;4.83;;
17564;SDS011;62994;52.126;5.596;2024-01-11T13:38:43;5.87;;;5.33;;
17564;SDS011;62994;52.126;5.596;2024-01-11T13:41:27;5.20;;;4.80;;
17564;SDS011;62994;52.126;5.596;2024-01-11T13:43:56;5.70;;;5.10;;
17564;SDS011;62994;52.126;5.596;2024-01-11T13:46:24;5.70;;;5.20;;
17564;SDS011;62994;52.126;5.596;2024-01-11T13:48:52;5.67;;;4.97;;
17564;SDS011;62994;52.126;5.596;2024-01-11T13:51:23;5.63;;;5.03;;
17564;SDS011;62994;52.126;5.596;2024-01-11T13:54:27;5.60;;;5.17;;
17564;SDS011;62994;52.126;5.596;2024-01-11T13:57:14;6.20;;;5.70;;
17564;SDS011;62994;52.126;5.596;2024-01-11T13:59:49;5.33;;;4.83;;
17564;SDS011;62994;52.126;5.596;2024-01-11T14:02:19;5.63;;;5.13;;
17564;SDS011;62994;52.126;5.596;2024-01-11T14:04:47;6.00;;;5.40;;
17564;SDS011;62994;52.126;5.596;2024-01-11T14:07:18;5.67;;;5.17;;
17564;SDS011;62994;52.126;5.596;2024-01-11T14:09:55;7.07;;;5.80;;
17564;SDS011;62994;52.126;5.596;2024-01-11T14:16:26;5.47;;;4.97;;
17564;SDS011;62994;52.126;5.596;2024-01-11T14:26:00;6.07;;;5.47;;
17564;SDS011;62994;52.126;5.596;2024-01-11T14:29:00;5.60;;;5.10;;
17564;SDS011;62994;52.126;5.596;2024-01-11T14:35:18;7.13;;;6.43;;
17564;SDS011;62994;52.126;5.596;2024-01-11T14:38:06;6.37;;;5.30;;
17564;SDS011;62994;52.126;5.596;2024-01-11T14:40:39;6.53;;;5.50;;
17564;SDS011;62994;52.126;5.596;2024-01-11T14:46:32;5.97;;;5.40;;
17564;SDS011;62994;52.126;5.596;2024-01-11T14:49:24;5.53;;;5.07;;
17564;SDS011;62994;52.126;5.596;2024-01-11T14:52:14;4.67;;;4.37;;
17564;SDS011;62994;52.126;5.596;2024-01-11T14:55:14;5.93;;;5.07;;
17564;SDS011;62994;52.126;5.596;2024-01-11T15:04:30;5.73;;;5.23;;
17564;SDS011;62994;52.126;5.596;2024-01-11T15:07:21;5.80;;;5.20;;
17564;SDS011;62994;52.126;5.596;2024-01-11T15:09:50;5.30;;;4.80;;
17564;SDS011;62994;52.126;5.596;2024-01-11T15:12:48;5.73;;;5.23;;
17564;SDS011;62994;52.126;5.596;2024-01-11T15:15:10;5.47;;;4.80;;
17564;SDS011;62994;52.126;5.596;2024-01-11T15:20:42;4.77;;;4.37;;
17564;SDS011;62994;52.126;5.596;2024-01-11T15:23:17;5.20;;;4.70;;
17564;SDS011;62994;52.126;5.596;2024-01-11T15:25:47;8.17;;;5.77;;
17564;SDS011;62994;52.126;5.596;2024-01-11T15:28:20;6.17;;;5.57;;
17564;SDS011;62994;52.126;5.596;2024-01-11T15:30:54;5.60;;;5.10;;
17564;SDS011;62994;52.126;5.596;2024-01-11T15:33:37;5.60;;;5.10;;
17564;SDS011;62994;52.126;5.596;2024-01-11T15:36:10;6.20;;;5.30;;
17564;SDS011;62994;52.126;5.596;2024-01-11T15:38:52;5.37;;;4.87;;
17564;SDS011;62994;52.126;5.596;2024-01-11T15:41:21;5.60;;;5.07;;
17564;SDS011;62994;52.126;5.596;2024-01-11T15:43:49;5.87;;;5.17;;
17564;SDS011;62994;52.126;5.596;2024-01-11T15:46:19;6.67;;;4.80;;
17564;SDS011;62994;52.126;5.596;2024-01-11T15:48:49;5.60;;;4.80;;
17564;SDS011;62994;52.126;5.596;2024-01-11T15:51:22;6.13;;;4.90;;
17564;SDS011;62994;52.126;5.596;2024-01-11T15:53:54;5.37;;;4.87;;
17564;SDS011;62994;52.126;5.596;2024-01-11T15:56:23;6.00;;;5.40;;
17564;SDS011;62994;52.126;5.596;2024-01-11T15:59:00;5.60;;;5.10;;
17564;SDS011;62994;52.126;5.596;2024-01-11T16:04:26;5.77;;;5.27;;
17564;SDS011;62994;52.126;5.596;2024-01-11T16:07:01;5.97;;;5.37;;
17564;SDS011;62994;52.126;5.596;2024-01-11T16:09:31;5.33;;;4.93;;
17564;SDS011;62994;52.126;5.596;2024-01-11T16:11:59;5.43;;;5.03;;
17564;SDS011;62994;52.126;5.596;2024-01-11T16:14:30;5.50;;;4.83;;